createdAt,value
2018-10-21T00:01:52.000Z,99.90
2018-10-21T00:04:20.849Z,99.90
2018-10-21T00:06:49.550Z,99.90
2018-10-21T00:09:18.428Z,99.90
2018-10-21T00:11:47.149Z,99.90
2018-10-21T00:14:15.982Z,99.90
2018-10-21T00:16:44.801Z,99.90
2018-10-21T00:19:13.523Z,99.90
2018-10-21T00:21:42.357Z,99.90
2018-10-21T00:24:11.112Z,99.90
2018-10-21T00:26:39.997Z,99.90
2018-10-21T00:29:08.855Z,99.90
2018-10-21T00:31:37.568Z,99.90
2018-10-21T00:34:06.409Z,99.90
2018-10-21T00:36:35.054Z,99.90
2018-10-21T00:39:05.781Z,99.90
2018-10-21T00:41:34.442Z,99.90
2018-10-21T00:44:03.245Z,99.90
2018-10-21T00:46:31.904Z,99.90
2018-10-21T00:49:00.753Z,99.90
2018-10-21T00:51:29.664Z,99.90
2018-10-21T00:53:58.408Z,99.90
2018-10-21T00:56:27.183Z,99.90
2018-10-21T00:58:56.092Z,99.90
2018-10-21T01:01:24.852Z,99.90
2018-10-21T01:03:53.619Z,99.90
2018-10-21T01:06:22.470Z,99.90
2018-10-21T01:08:51.212Z,99.90
2018-10-21T01:11:20.110Z,99.90
2018-10-21T01:13:48.866Z,99.90
2018-10-21T01:16:17.704Z,99.90
2018-10-21T01:18:46.378Z,99.90
2018-10-21T01:21:15.194Z,99.90
2018-10-21T01:23:43.780Z,99.90
2018-10-21T01:26:12.648Z,99.90
2018-10-21T01:28:41.393Z,99.90
2018-10-21T01:31:10.416Z,99.90
2018-10-21T01:33:39.091Z,99.90
2018-10-21T01:36:08.011Z,99.90
2018-10-21T01:38:36.941Z,99.90
2018-10-21T01:41:05.745Z,99.90
2018-10-21T01:43:34.615Z,99.90
2018-10-21T01:46:03.805Z,99.90
2018-10-21T01:48:33.030Z,99.90
2018-10-21T01:51:01.881Z,99.90
2018-10-21T01:53:30.569Z,99.90
2018-10-21T01:55:59.302Z,99.90
2018-10-21T01:58:28.129Z,99.90
2018-10-21T02:00:56.915Z,99.90
2018-10-21T02:03:25.791Z,99.90
2018-10-21T02:05:54.497Z,99.90
2018-10-21T02:08:23.199Z,99.90
2018-10-21T02:10:52.015Z,99.90
2018-10-21T02:13:20.815Z,99.90
2018-10-21T02:15:49.696Z,99.90
2018-10-21T02:18:18.451Z,99.90
2018-10-21T02:20:47.618Z,99.90
2018-10-21T02:23:16.750Z,99.90
2018-10-21T02:25:45.571Z,99.90
2018-10-21T02:28:14.489Z,99.90
2018-10-21T02:30:43.305Z,99.90
2018-10-21T02:33:11.954Z,99.90
2018-10-21T02:35:40.901Z,99.90
2018-10-21T02:38:09.495Z,99.90
2018-10-21T02:41:47.346Z,99.90
2018-10-21T02:44:18.147Z,99.90
2018-10-21T02:46:47.639Z,99.90
2018-10-21T02:49:16.997Z,99.90
2018-10-21T02:51:50.921Z,99.90
2018-10-21T02:54:27.590Z,99.90
2018-10-21T02:56:56.506Z,99.90
2018-10-21T02:59:25.648Z,99.90
2018-10-21T03:01:54.628Z,99.90
2018-10-21T03:04:23.937Z,99.90
2018-10-21T03:06:53.023Z,99.90
2018-10-21T03:09:21.887Z,99.90
2018-10-21T03:11:51.027Z,99.90
2018-10-21T03:14:19.828Z,99.90
2018-10-21T03:16:48.697Z,99.90
2018-10-21T03:19:17.424Z,99.90
2018-10-21T03:21:46.224Z,99.90
2018-10-21T03:24:15.021Z,99.90
2018-10-21T03:26:44.537Z,99.90
2018-10-21T03:29:13.334Z,99.90
2018-10-21T03:31:42.207Z,99.90
2018-10-21T03:34:11.050Z,99.90
2018-10-21T03:36:39.923Z,99.90
2018-10-21T03:39:09.966Z,99.90
2018-10-21T03:41:39.140Z,99.90
2018-10-21T03:44:07.899Z,99.90
2018-10-21T03:46:36.713Z,99.90
2018-10-21T03:49:05.395Z,99.90
2018-10-21T03:51:34.611Z,99.90
2018-10-21T03:54:03.361Z,99.90
2018-10-21T03:56:32.249Z,99.90
2018-10-21T03:59:01.045Z,99.90
2018-10-21T04:01:29.774Z,99.90
2018-10-21T04:03:58.943Z,99.90
2018-10-21T04:06:27.594Z,99.90
2018-10-21T04:08:56.533Z,99.90
2018-10-21T04:11:25.416Z,99.90
2018-10-21T04:13:54.291Z,99.90
2018-10-21T04:16:23.048Z,99.90
2018-10-21T04:18:52.085Z,99.90
2018-10-21T04:21:20.952Z,99.90
2018-10-21T04:23:49.968Z,99.90
2018-10-21T04:26:18.731Z,99.90
2018-10-21T04:28:47.582Z,99.90
2018-10-21T04:31:16.351Z,99.90
2018-10-21T04:33:45.976Z,99.90
2018-10-21T04:36:19.962Z,99.90
2018-10-21T04:40:17.061Z,99.90
2018-10-21T04:42:46.569Z,99.90
2018-10-21T04:45:16.828Z,99.90
2018-10-21T04:47:45.753Z,99.90
2018-10-21T04:50:14.632Z,99.90
2018-10-21T04:52:43.755Z,99.90
2018-10-21T04:55:13.638Z,99.90
2018-10-21T04:57:44.854Z,99.90
2018-10-21T05:00:15.908Z,99.90
2018-10-21T05:02:44.688Z,99.90
2018-10-21T05:05:14.587Z,99.90
2018-10-21T05:07:43.526Z,99.90
2018-10-21T05:10:29.362Z,99.90
2018-10-21T05:12:58.384Z,99.90
2018-10-21T05:15:28.350Z,99.90
2018-10-21T05:17:57.445Z,99.90
2018-10-21T05:20:26.142Z,99.90
2018-10-21T05:22:55.051Z,99.90
2018-10-21T05:25:24.027Z,99.90
2018-10-21T05:27:52.841Z,99.90
2018-10-21T05:30:21.729Z,99.90
2018-10-21T05:32:50.691Z,99.90
2018-10-21T05:35:20.048Z,99.90
2018-10-21T05:37:48.872Z,99.90
2018-10-21T05:40:19.023Z,99.90
2018-10-21T05:42:48.321Z,99.90
2018-10-21T05:45:17.257Z,99.90
2018-10-21T05:47:46.121Z,99.90
2018-10-21T05:50:15.719Z,99.90
2018-10-21T05:52:44.835Z,99.90
2018-10-21T05:55:14.192Z,99.90
2018-10-21T05:57:43.344Z,99.90
2018-10-21T06:00:15.421Z,99.90
2018-10-21T06:02:44.241Z,99.90
2018-10-21T06:05:28.799Z,99.90
2018-10-21T06:07:57.515Z,99.90
2018-10-21T06:10:26.352Z,99.90
2018-10-21T06:12:55.377Z,99.90
2018-10-21T06:15:24.186Z,99.90
2018-10-21T06:17:52.970Z,99.90
2018-10-21T06:20:31.152Z,99.90
2018-10-21T06:22:59.992Z,99.90
2018-10-21T06:25:28.872Z,99.90
2018-10-21T06:27:57.622Z,99.90
2018-10-21T06:30:26.424Z,99.90
2018-10-21T06:32:55.417Z,99.90
2018-10-21T06:35:24.194Z,99.90
2018-10-21T06:37:53.036Z,99.90
2018-10-21T06:40:21.853Z,99.30
2018-10-21T06:42:50.632Z,98.90
2018-10-21T06:45:19.532Z,98.70
2018-10-21T06:47:48.565Z,98.40
2018-10-21T06:50:18.677Z,98.10
2018-10-21T06:52:48.034Z,97.90
2018-10-21T06:55:18.678Z,97.00
2018-10-21T06:57:48.698Z,96.10
2018-10-21T07:00:17.616Z,96.10
2018-10-21T07:02:46.378Z,95.50
2018-10-21T07:05:26.427Z,94.70
2018-10-21T07:07:55.340Z,94.00
2018-10-21T07:10:24.235Z,93.80
2018-10-21T07:12:53.016Z,94.40
2018-10-21T07:15:21.869Z,94.60
2018-10-21T07:17:50.622Z,94.60
2018-10-21T07:20:19.445Z,94.70
2018-10-21T07:22:48.074Z,94.30
2018-10-21T07:25:16.856Z,94.10
2018-10-21T07:27:45.673Z,93.50
2018-10-21T07:30:14.315Z,93.40
2018-10-21T07:32:43.319Z,92.90
2018-10-21T07:35:13.891Z,92.90
2018-10-21T07:37:43.428Z,92.50
2018-10-21T07:40:12.917Z,92.10
2018-10-21T07:42:41.933Z,92.10
2018-10-21T07:45:10.769Z,91.80
2018-10-21T07:47:39.718Z,91.80
2018-10-21T07:50:08.409Z,90.90
2018-10-21T07:52:37.205Z,90.40
2018-10-21T07:55:06.018Z,90.40
2018-10-21T07:57:34.868Z,90.50
2018-10-21T08:00:03.607Z,90.40
2018-10-21T08:02:32.537Z,90.20
2018-10-21T08:05:01.243Z,90.20
2018-10-21T08:07:41.705Z,89.20
2018-10-21T08:10:10.393Z,88.80
2018-10-21T08:12:39.276Z,88.60
2018-10-21T08:15:07.990Z,90.00
2018-10-21T08:17:36.695Z,90.00
2018-10-21T08:20:05.886Z,89.50
2018-10-21T08:22:34.581Z,89.50
2018-10-21T08:25:03.231Z,89.30
2018-10-21T08:27:31.813Z,88.50
2018-10-21T08:30:00.500Z,89.20
2018-10-21T08:32:29.434Z,88.20
2018-10-21T08:34:58.032Z,87.90
2018-10-21T08:37:26.834Z,88.20
2018-10-21T08:39:55.637Z,87.80
2018-10-21T08:42:24.471Z,87.10
2018-10-21T08:44:53.027Z,87.50
2018-10-21T08:47:21.800Z,87.20
2018-10-21T08:49:50.713Z,86.60
2018-10-21T08:52:19.537Z,85.40
2018-10-21T08:54:48.280Z,86.00
2018-10-21T08:57:17.081Z,85.00
2018-10-21T08:59:45.941Z,84.90
2018-10-21T09:02:14.677Z,83.50
2018-10-21T09:04:43.374Z,83.20
2018-10-21T09:07:12.243Z,84.10
2018-10-21T09:09:41.199Z,84.50
2018-10-21T09:12:10.175Z,85.40
2018-10-21T09:14:38.977Z,85.40
2018-10-21T09:17:07.713Z,85.00
2018-10-21T09:19:36.494Z,84.40
2018-10-21T09:22:05.185Z,84.50
2018-10-21T09:24:33.918Z,84.70
2018-10-21T09:27:02.542Z,83.60
2018-10-21T09:29:31.442Z,84.00
2018-10-21T09:31:59.948Z,85.00
2018-10-21T09:34:28.751Z,84.90
2018-10-21T09:36:57.529Z,86.30
2018-10-21T09:39:26.361Z,88.60
2018-10-21T09:41:55.019Z,86.50
2018-10-21T09:44:23.900Z,86.10
2018-10-21T09:46:52.695Z,86.90
2018-10-21T09:49:21.548Z,88.30
2018-10-21T09:51:50.243Z,87.40
2018-10-21T09:54:19.099Z,85.80
2018-10-21T09:56:47.805Z,85.20
2018-10-21T09:59:16.458Z,85.50
2018-10-21T10:01:50.269Z,85.50
2018-10-21T10:04:19.148Z,86.70
2018-10-21T10:06:47.979Z,89.40
2018-10-21T10:09:16.855Z,88.40
2018-10-21T10:11:45.541Z,88.50
2018-10-21T10:14:15.302Z,89.00
2018-10-21T10:16:44.069Z,89.90
2018-10-21T10:19:12.941Z,90.90
2018-10-21T10:21:41.563Z,91.00
2018-10-21T10:24:10.443Z,90.50
2018-10-21T10:26:39.245Z,90.60
2018-10-21T10:29:08.029Z,91.10
2018-10-21T10:31:36.831Z,91.10
2018-10-21T10:34:05.475Z,91.00
2018-10-21T10:36:34.280Z,88.80
2018-10-21T10:39:03.272Z,89.00
2018-10-21T10:41:31.998Z,85.80
2018-10-21T10:44:00.703Z,85.10
2018-10-21T10:46:29.644Z,84.10
2018-10-21T10:48:58.467Z,84.60
2018-10-21T10:51:27.302Z,85.00
2018-10-21T10:53:56.233Z,84.00
2018-10-21T10:56:25.209Z,85.60
2018-10-21T10:58:54.010Z,85.70
2018-10-21T11:01:22.828Z,87.00
2018-10-21T11:03:51.669Z,88.00
2018-10-21T11:06:20.558Z,87.10
2018-10-21T11:08:49.418Z,87.10
2018-10-21T11:11:18.159Z,89.50
2018-10-21T11:13:46.833Z,87.30
2018-10-21T11:16:15.731Z,88.20
2018-10-21T11:18:44.483Z,88.90
2018-10-21T11:21:13.111Z,89.80
2018-10-21T11:23:41.899Z,89.30
2018-10-21T11:26:10.717Z,90.20
2018-10-21T11:28:39.547Z,90.40
2018-10-21T11:31:08.368Z,90.90
2018-10-21T11:33:37.068Z,90.00
2018-10-21T11:36:05.997Z,88.30
2018-10-21T11:38:34.814Z,89.50
2018-10-21T11:41:03.484Z,89.90
2018-10-21T11:43:32.150Z,90.20
2018-10-21T11:46:00.919Z,89.50
2018-10-21T11:48:29.592Z,90.00
2018-10-21T11:50:58.276Z,90.40
2018-10-21T11:53:27.010Z,90.20
2018-10-21T11:55:55.771Z,90.70
2018-10-21T11:58:24.491Z,90.30
2018-10-21T12:00:53.343Z,89.90
2018-10-21T12:03:22.267Z,90.00
2018-10-21T12:05:50.801Z,90.10
2018-10-21T12:08:19.467Z,90.30
2018-10-21T12:10:48.202Z,90.50
2018-10-21T12:13:16.978Z,91.30
2018-10-21T12:15:45.651Z,91.50
2018-10-21T12:18:14.260Z,92.00
2018-10-21T12:20:43.019Z,91.50
2018-10-21T12:23:11.901Z,91.30
2018-10-21T12:25:40.661Z,91.00
2018-10-21T12:28:09.327Z,91.50
2018-10-21T12:30:38.112Z,91.50
2018-10-21T12:33:07.033Z,91.30
2018-10-21T12:35:35.720Z,91.60
2018-10-21T12:38:04.544Z,92.20
2018-10-21T12:40:33.213Z,92.30
2018-10-21T12:43:01.951Z,92.00
2018-10-21T12:45:30.767Z,93.50
2018-10-21T12:47:59.375Z,92.30
2018-10-21T12:50:28.031Z,91.60
2018-10-21T12:52:56.753Z,91.60
2018-10-21T12:55:25.543Z,92.10
2018-10-21T12:57:54.222Z,91.50
2018-10-21T13:00:23.243Z,91.50
2018-10-21T13:02:52.062Z,92.40
2018-10-21T13:05:20.818Z,91.90
2018-10-21T13:07:49.524Z,91.80
2018-10-21T13:10:18.445Z,92.20
2018-10-21T13:12:47.243Z,91.50
2018-10-21T13:15:15.993Z,92.40
2018-10-21T13:17:44.871Z,91.70
2018-10-21T13:20:13.627Z,91.10
2018-10-21T13:22:42.345Z,91.70
2018-10-21T13:25:11.161Z,91.90
2018-10-21T13:27:40.058Z,92.60
2018-10-21T13:30:08.883Z,92.80
2018-10-21T13:32:37.699Z,92.80
2018-10-21T13:35:06.536Z,92.90
2018-10-21T13:37:35.355Z,92.90
2018-10-21T13:40:04.262Z,92.90
2018-10-21T13:42:33.180Z,93.20
2018-10-21T13:45:01.852Z,93.60
2018-10-21T13:47:31.450Z,93.70
2018-10-21T13:50:00.140Z,93.80
2018-10-21T13:52:29.154Z,93.90
2018-10-21T13:54:58.092Z,94.40
2018-10-21T13:57:26.940Z,95.40
2018-10-21T13:59:56.009Z,95.60
2018-10-21T14:02:24.820Z,95.60
2018-10-21T14:04:53.776Z,95.70
2018-10-21T14:07:22.776Z,95.70
2018-10-21T14:09:51.419Z,96.00
2018-10-21T14:12:20.248Z,96.10
2018-10-21T14:14:49.128Z,95.90
2018-10-21T14:17:17.880Z,95.30
2018-10-21T14:19:46.737Z,95.00
2018-10-21T14:22:15.617Z,94.70
2018-10-21T14:24:44.354Z,94.70
2018-10-21T14:27:13.167Z,94.90
2018-10-21T14:29:42.174Z,95.10
2018-10-21T14:32:10.851Z,94.80
2018-10-21T14:34:39.663Z,94.60
2018-10-21T14:37:08.410Z,94.60
2018-10-21T14:39:37.065Z,94.90
2018-10-21T14:42:05.892Z,95.00
2018-10-21T14:44:34.591Z,95.20
2018-10-21T14:47:03.299Z,95.30
2018-10-21T14:49:32.047Z,95.30
2018-10-21T14:52:00.854Z,95.00
2018-10-21T14:54:29.672Z,95.10
2018-10-21T14:56:58.764Z,94.90
2018-10-21T14:59:27.563Z,95.30
2018-10-21T15:01:57.105Z,94.60
2018-10-21T15:04:25.918Z,94.40
2018-10-21T15:06:55.916Z,94.40
2018-10-21T15:09:26.810Z,94.80
2018-10-21T15:11:56.421Z,94.80
2018-10-21T15:14:25.220Z,95.10
2018-10-21T15:16:55.832Z,94.90
2018-10-21T15:19:24.756Z,94.70
2018-10-21T15:21:53.905Z,94.60
2018-10-21T15:24:22.541Z,94.50
2018-10-21T15:26:51.346Z,94.80
2018-10-21T15:29:20.639Z,94.80
2018-10-21T15:31:49.484Z,95.10
2018-10-21T15:34:18.558Z,94.80
2018-10-21T15:36:47.198Z,95.00
2018-10-21T15:39:16.020Z,94.70
2018-10-21T15:41:44.784Z,94.90
2018-10-21T15:44:13.760Z,94.90
2018-10-21T15:46:42.490Z,94.80
2018-10-21T15:49:11.261Z,94.90
2018-10-21T15:51:40.074Z,95.20
2018-10-21T15:54:09.153Z,94.80
2018-10-21T15:56:38.223Z,94.80
2018-10-21T15:59:08.120Z,96.20
2018-10-21T16:01:36.732Z,95.80
2018-10-21T16:04:05.723Z,95.80
2018-10-21T16:06:34.427Z,97.00
2018-10-21T16:09:04.142Z,96.10
2018-10-21T16:11:32.862Z,96.00
2018-10-21T16:14:01.773Z,95.80
2018-10-21T16:16:30.582Z,95.20
2018-10-21T16:18:59.324Z,95.10
2018-10-21T16:21:28.043Z,96.40
2018-10-21T16:23:56.788Z,95.10
2018-10-21T16:26:25.609Z,95.00
2018-10-21T16:28:54.429Z,95.10
2018-10-21T16:31:23.275Z,95.20
2018-10-21T16:33:51.968Z,95.50
2018-10-21T16:36:21.452Z,95.50
2018-10-21T16:38:50.500Z,95.40
2018-10-21T16:41:20.321Z,95.60
2018-10-21T16:43:49.200Z,96.30
2018-10-21T16:46:17.990Z,96.40
2018-10-21T16:48:46.650Z,96.80
2018-10-21T16:51:15.248Z,96.90
2018-10-21T16:53:44.092Z,97.00
2018-10-21T16:56:12.814Z,97.00
2018-10-21T16:58:41.573Z,97.50
2018-10-21T17:01:10.411Z,99.90
2018-10-21T17:03:39.297Z,99.90
2018-10-21T17:06:07.965Z,99.90
2018-10-21T17:08:36.704Z,99.90
2018-10-21T17:11:05.675Z,99.90
2018-10-21T17:13:34.312Z,99.90
2018-10-21T17:16:03.431Z,99.90
2018-10-21T17:18:32.244Z,99.90
2018-10-21T17:21:01.165Z,99.90
2018-10-21T17:23:30.578Z,99.90
2018-10-21T17:25:59.752Z,99.90
2018-10-21T17:28:28.662Z,99.90
2018-10-21T17:30:58.246Z,99.90
2018-10-21T17:33:26.955Z,99.90
2018-10-21T17:35:55.604Z,99.90
2018-10-21T17:38:24.694Z,99.90
2018-10-21T17:40:53.807Z,99.90
2018-10-21T17:43:22.870Z,99.90
2018-10-21T17:45:51.659Z,99.90
2018-10-21T17:48:20.472Z,99.90
2018-10-21T17:50:49.260Z,99.90
2018-10-21T17:53:19.200Z,99.90
2018-10-21T17:55:47.938Z,99.90
2018-10-21T17:58:17.270Z,99.90
2018-10-21T18:00:46.260Z,99.90
2018-10-21T18:03:14.985Z,99.90
2018-10-21T18:05:43.701Z,99.90
2018-10-21T18:08:12.540Z,99.90
2018-10-21T18:10:41.371Z,99.90
2018-10-21T18:13:10.202Z,99.90
2018-10-21T18:15:39.070Z,99.90
2018-10-21T18:18:08.228Z,99.90
2018-10-21T18:20:36.805Z,99.70
2018-10-21T18:23:05.652Z,99.80
2018-10-21T18:25:34.370Z,99.50
2018-10-21T18:28:03.232Z,99.10
2018-10-21T18:30:31.802Z,99.00
2018-10-21T18:33:00.452Z,98.80
2018-10-21T18:35:29.265Z,99.00
2018-10-21T18:37:57.973Z,99.00
2018-10-21T18:40:26.844Z,99.10
2018-10-21T18:42:55.507Z,99.00
2018-10-21T18:45:24.169Z,98.90
2018-10-21T18:47:52.803Z,98.80
2018-10-21T18:50:21.515Z,98.90
2018-10-21T18:52:50.153Z,99.10
2018-10-21T18:55:19.076Z,98.90
2018-10-21T18:57:47.630Z,98.90
2018-10-21T19:00:18.039Z,99.30
2018-10-21T19:02:47.167Z,99.20
2018-10-21T19:05:16.264Z,99.30
2018-10-21T19:07:45.055Z,99.40
2018-10-21T19:10:14.952Z,99.70
2018-10-21T19:12:43.831Z,99.50
2018-10-21T19:15:13.389Z,99.20
2018-10-21T19:17:42.314Z,98.90
2018-10-21T19:20:13.847Z,99.00
2018-10-21T19:22:42.785Z,99.00
2018-10-21T19:25:13.064Z,99.90
2018-10-21T19:27:42.349Z,99.90
2018-10-21T19:30:12.705Z,99.20
2018-10-21T19:32:43.275Z,99.10
2018-10-21T19:35:13.697Z,99.20
2018-10-21T19:37:43.528Z,99.40
2018-10-21T19:40:13.764Z,99.40
2018-10-21T19:42:43.327Z,99.20
2018-10-21T19:45:13.031Z,99.20
2018-10-21T19:47:42.204Z,98.90
2018-10-21T19:50:12.649Z,98.90
2018-10-21T19:52:42.486Z,98.60
2018-10-21T19:55:12.001Z,98.70
2018-10-21T19:57:41.191Z,98.50
2018-10-21T20:00:13.318Z,98.30
2018-10-21T20:02:43.078Z,98.30
2018-10-21T20:05:14.441Z,98.10
2018-10-21T20:07:43.743Z,98.10
2018-10-21T20:10:13.856Z,98.10
2018-10-21T20:12:42.726Z,98.00
2018-10-21T20:15:12.648Z,98.20
2018-10-21T20:17:41.748Z,98.30
2018-10-21T20:20:11.569Z,98.30
2018-10-21T20:22:40.588Z,98.20
2018-10-21T20:25:10.828Z,98.10
2018-10-21T20:27:40.052Z,98.00
2018-10-21T20:30:10.911Z,98.10
2018-10-21T20:32:40.476Z,98.50
2018-10-21T20:35:10.998Z,98.50
2018-10-21T20:37:40.367Z,98.20
2018-10-21T20:40:10.096Z,98.50
2018-10-21T20:42:39.373Z,98.50
2018-10-21T20:45:10.246Z,98.40
2018-10-21T20:47:39.705Z,98.60
2018-10-21T20:50:08.802Z,98.50
2018-10-21T20:52:38.819Z,98.40
2018-10-21T20:55:08.369Z,98.50
2018-10-21T20:57:37.093Z,98.70
2018-10-21T21:00:06.170Z,98.90
2018-10-21T21:02:34.918Z,98.80
2018-10-21T21:05:03.746Z,98.80
2018-10-21T21:07:32.836Z,98.90
2018-10-21T21:10:01.905Z,99.10
2018-10-21T21:12:30.872Z,99.00
2018-10-21T21:15:00.818Z,99.10
2018-10-21T21:17:29.658Z,98.90
2018-10-21T21:19:58.396Z,98.60
2018-10-21T21:22:27.201Z,98.20
2018-10-21T21:24:56.180Z,98.40
2018-10-21T21:27:24.881Z,98.50
2018-10-21T21:29:53.705Z,98.40
2018-10-21T21:32:24.113Z,98.60
2018-10-21T21:34:52.900Z,99.10
2018-10-21T21:37:22.018Z,99.10
2018-10-21T21:39:50.851Z,99.20
2018-10-21T21:42:19.981Z,99.40
2018-10-21T21:44:48.777Z,99.50
2018-10-21T21:47:17.523Z,99.50
2018-10-21T21:49:46.421Z,99.70
2018-10-21T21:52:15.215Z,99.60
2018-10-21T21:54:44.191Z,99.80
2018-10-21T21:57:13.582Z,99.90
2018-10-21T21:59:42.458Z,99.90
2018-10-21T22:02:11.297Z,99.90
2018-10-21T22:04:39.802Z,99.90
2018-10-21T22:07:08.693Z,99.90
2018-10-21T22:09:37.537Z,99.90
2018-10-21T22:12:06.459Z,99.90
2018-10-21T22:14:36.143Z,99.90
2018-10-21T22:17:05.037Z,99.90
2018-10-21T22:19:33.900Z,99.90
2018-10-21T22:22:02.617Z,99.90
2018-10-21T22:24:31.402Z,99.90
2018-10-21T22:27:00.409Z,99.90
2018-10-21T22:29:29.187Z,99.90
2018-10-21T22:31:57.749Z,99.90
2018-10-21T22:34:26.593Z,99.90
2018-10-21T22:36:55.344Z,99.90
2018-10-21T22:39:24.167Z,99.90
2018-10-21T22:41:52.888Z,99.90
2018-10-21T22:44:21.819Z,99.90
2018-10-21T22:46:50.662Z,99.90
2018-10-21T22:49:19.362Z,99.90
2018-10-21T22:51:48.281Z,99.90
2018-10-21T22:54:17.320Z,99.90
2018-10-21T22:56:45.849Z,99.90
2018-10-21T22:59:14.735Z,99.90
2018-10-21T23:01:43.592Z,99.90
2018-10-21T23:04:12.469Z,99.90
2018-10-21T23:06:41.299Z,99.90
2018-10-21T23:09:11.187Z,99.90
2018-10-21T23:11:40.002Z,99.90
2018-10-21T23:14:08.630Z,99.90
2018-10-21T23:16:37.485Z,99.90
2018-10-21T23:19:17.227Z,99.90
2018-10-21T23:21:46.118Z,99.90
2018-10-21T23:24:15.058Z,99.90
2018-10-21T23:26:43.894Z,99.90
2018-10-21T23:29:12.746Z,99.90
2018-10-21T23:31:41.804Z,99.90
2018-10-21T23:34:10.552Z,99.90
2018-10-21T23:36:39.278Z,99.90
2018-10-21T23:39:08.199Z,99.90
2018-10-21T23:41:36.876Z,99.90
2018-10-21T23:44:05.830Z,99.90
2018-10-21T23:46:34.808Z,99.90
2018-10-21T23:49:03.854Z,99.90
2018-10-21T23:51:32.785Z,99.90
2018-10-21T23:54:01.628Z,99.90
2018-10-21T23:56:30.737Z,99.90
2018-10-21T23:58:59.806Z,99.90
